createdAt,value
2023-02-23T04:00:13.211Z,27.20
2023-02-23T04:03:06.995Z,30.42
2023-02-23T04:05:55.385Z,29.92
2023-02-23T04:08:46.633Z,29.42
2023-02-23T04:11:38.250Z,31.08
2023-02-23T04:14:11.544Z,30.67
2023-02-23T04:16:39.820Z,28.35
2023-02-23T04:19:09.328Z,30.25
2023-02-23T04:21:37.232Z,30.77
2023-02-23T04:24:05.777Z,29.83
2023-02-23T04:26:33.784Z,29.23
2023-02-23T04:29:01.564Z,29.30
2023-02-23T04:31:29.408Z,30.65
2023-02-23T04:33:57.615Z,33.47
2023-02-23T04:36:26.859Z,32.78
2023-02-23T04:38:54.684Z,30.33
2023-02-23T04:41:22.515Z,31.05
2023-02-23T04:43:50.350Z,32.30
2023-02-23T04:46:18.608Z,37.88
2023-02-23T04:48:46.501Z,32.83
2023-02-23T04:51:14.471Z,34.67
2023-02-23T04:53:44.119Z,32.05
2023-02-23T04:56:12.080Z,33.30
2023-02-23T04:58:39.973Z,30.48
2023-02-23T05:01:09.623Z,33.67
2023-02-23T05:03:37.630Z,31.33
2023-02-23T05:06:05.737Z,35.97
2023-02-23T05:08:33.630Z,36.90
2023-02-23T05:11:02.957Z,32.03
2023-02-23T05:13:30.792Z,33.67
2023-02-23T05:15:58.699Z,32.05
2023-02-23T05:18:26.668Z,34.00
2023-02-23T05:20:55.508Z,31.60
2023-02-23T05:23:23.467Z,30.95
2023-02-23T05:25:51.338Z,31.05
2023-02-23T05:28:20.514Z,46.45
2023-02-23T05:30:48.433Z,45.00
2023-02-23T05:33:18.281Z,39.38
2023-02-23T05:35:46.405Z,32.85
2023-02-23T05:38:14.300Z,37.85
2023-02-23T05:40:42.172Z,33.75
2023-02-23T05:43:10.072Z,37.97
2023-02-23T05:45:42.338Z,35.72
2023-02-23T05:48:11.031Z,37.80
2023-02-23T05:50:39.670Z,34.35
2023-02-23T05:53:07.609Z,34.70
2023-02-23T05:55:37.494Z,34.40
2023-02-23T05:58:05.400Z,36.13
2023-02-23T06:00:33.364Z,36.90
2023-02-23T06:03:03.368Z,36.78
2023-02-23T06:05:31.310Z,40.28
2023-02-23T06:07:59.161Z,42.42
2023-02-23T06:10:27.047Z,46.72
2023-02-23T06:12:54.910Z,47.67
2023-02-23T06:15:23.496Z,40.15
2023-02-23T06:17:51.314Z,39.95
2023-02-23T06:20:20.630Z,35.17
2023-02-23T06:22:48.469Z,37.25
2023-02-23T06:25:16.406Z,33.28
2023-02-23T06:27:45.382Z,42.83
2023-02-23T06:30:13.945Z,68.00
2023-02-23T06:32:41.812Z,39.95
2023-02-23T06:35:13.142Z,38.72
2023-02-23T06:37:43.303Z,35.03
2023-02-23T06:40:12.300Z,37.22
2023-02-23T06:42:40.138Z,30.73
2023-02-23T06:45:08.681Z,28.17
2023-02-23T06:47:36.558Z,33.90
2023-02-23T06:50:04.680Z,29.75
2023-02-23T06:52:32.553Z,31.50
2023-02-23T06:55:01.741Z,32.00
2023-02-23T06:57:29.596Z,31.52
2023-02-23T06:59:57.477Z,35.72
2023-02-23T07:02:25.304Z,32.40
2023-02-23T07:04:53.118Z,34.15
2023-02-23T07:07:20.959Z,32.47
2023-02-23T07:09:48.897Z,30.42
2023-02-23T07:12:18.430Z,28.15
2023-02-23T07:14:46.293Z,31.10
2023-02-23T07:17:14.331Z,33.90
2023-02-23T07:19:42.252Z,32.70
2023-02-23T07:22:10.143Z,33.45
2023-02-23T07:24:38.611Z,33.88
2023-02-23T07:27:06.535Z,36.47
2023-02-23T07:29:35.688Z,34.40
2023-02-23T07:32:03.547Z,35.38
2023-02-23T07:34:31.489Z,35.88
2023-02-23T07:36:59.303Z,32.15
2023-02-23T07:39:27.261Z,33.63
2023-02-23T07:41:55.120Z,59.70
2023-02-23T07:44:24.724Z,38.92
2023-02-23T07:46:53.895Z,33.38
2023-02-23T07:49:21.781Z,35.97
2023-02-23T07:51:49.780Z,41.85
2023-02-23T07:54:17.741Z,36.97
2023-02-23T07:56:45.732Z,36.78
2023-02-23T07:59:14.319Z,38.90
2023-02-23T08:01:42.274Z,38.88
2023-02-23T08:04:11.518Z,41.28
2023-02-23T08:06:39.347Z,35.40
2023-02-23T08:09:07.292Z,34.55
2023-02-23T08:11:35.169Z,32.63
2023-02-23T08:14:03.132Z,33.90
2023-02-23T08:16:32.090Z,34.25
2023-02-23T08:19:00.380Z,36.63
2023-02-23T08:21:30.647Z,36.55
2023-02-23T08:23:59.150Z,36.40
2023-02-23T08:26:27.371Z,39.92
2023-02-23T08:28:55.510Z,37.03
2023-02-23T08:31:25.233Z,36.83
2023-02-23T08:33:54.174Z,34.13
2023-02-23T08:36:22.453Z,34.83
2023-02-23T08:38:51.807Z,37.25
2023-02-23T08:41:20.040Z,42.15
2023-02-23T08:43:48.713Z,37.28
2023-02-23T08:46:18.600Z,40.83
2023-02-23T08:48:46.680Z,35.75
2023-02-23T08:51:15.253Z,37.15
2023-02-23T08:53:43.085Z,36.90
2023-02-23T08:56:13.639Z,38.10
2023-02-23T08:58:41.448Z,36.47
2023-02-23T09:01:16.891Z,42.72
2023-02-23T09:03:44.874Z,35.83
2023-02-23T09:06:16.920Z,36.90
2023-02-23T09:08:45.172Z,34.80
2023-02-23T09:11:14.364Z,37.83
2023-02-23T09:13:42.241Z,38.97
2023-02-23T09:16:10.259Z,39.55
2023-02-23T09:18:38.343Z,37.55
2023-02-23T09:21:08.479Z,40.35
2023-02-23T09:23:36.798Z,37.25
2023-02-23T09:26:05.705Z,41.92
2023-02-23T09:28:36.201Z,37.97
2023-02-23T09:31:07.423Z,38.42
2023-02-23T09:33:35.325Z,35.78
2023-02-23T09:36:07.055Z,38.45
2023-02-23T09:38:34.913Z,35.67
2023-02-23T09:41:02.789Z,37.35
2023-02-23T09:43:37.393Z,38.55
2023-02-23T09:46:15.454Z,37.60
2023-02-23T09:48:43.975Z,40.17
2023-02-23T09:51:18.118Z,36.95
2023-02-23T09:53:49.350Z,38.25
2023-02-23T09:56:21.950Z,37.60
2023-02-23T09:58:51.267Z,44.05
2023-02-23T10:02:05.486Z,39.97
2023-02-23T10:04:38.183Z,61.00
2023-02-23T10:07:12.161Z,37.08
2023-02-23T10:09:53.313Z,36.90
2023-02-23T10:12:27.282Z,40.60
2023-02-23T10:15:06.435Z,34.47
2023-02-23T10:17:42.029Z,32.33
2023-02-23T10:20:20.870Z,35.03
2023-02-23T10:22:50.822Z,32.15
2023-02-23T10:25:22.653Z,38.75
2023-02-23T10:27:52.040Z,37.40
2023-02-23T10:30:26.660Z,36.85
2023-02-23T10:33:00.420Z,33.33
2023-02-23T10:35:30.979Z,32.10
2023-02-23T10:38:01.567Z,31.73
2023-02-23T10:40:32.935Z,32.10
2023-02-23T10:43:02.336Z,30.67
2023-02-23T10:45:38.656Z,31.80
2023-02-23T10:48:08.581Z,29.85
2023-02-23T10:50:39.346Z,29.42
2023-02-23T10:53:16.992Z,30.42
2023-02-23T10:55:46.149Z,28.33
2023-02-23T10:58:17.805Z,29.23
2023-02-23T11:00:55.189Z,30.30
2023-02-23T11:03:28.664Z,32.38
2023-02-23T11:05:56.568Z,33.65
2023-02-23T11:08:31.277Z,30.17
2023-02-23T11:11:02.812Z,32.17
2023-02-23T11:13:36.647Z,31.50
2023-02-23T11:16:10.025Z,31.05
2023-02-23T11:18:39.054Z,28.00
2023-02-23T11:21:11.924Z,28.42
2023-02-23T11:23:41.482Z,25.02
2023-02-23T11:26:24.844Z,27.70
2023-02-23T11:28:55.872Z,30.85
2023-02-23T11:31:32.037Z,26.75
2023-02-23T11:34:00.648Z,29.50
2023-02-23T11:36:30.720Z,33.20
2023-02-23T11:39:05.393Z,27.08
2023-02-23T11:41:35.199Z,36.08
2023-02-23T11:44:06.184Z,34.58
2023-02-23T11:46:39.065Z,29.33
2023-02-23T11:49:09.019Z,29.73
2023-02-23T11:51:39.319Z,25.60
2023-02-23T11:54:17.375Z,19.20
2023-02-23T11:56:52.053Z,24.48
2023-02-23T11:59:24.049Z,19.08
2023-02-23T12:01:55.355Z,18.85
2023-02-23T12:04:30.768Z,19.45
2023-02-23T12:07:42.398Z,17.95
2023-02-23T12:10:22.637Z,35.83
2023-02-23T12:13:01.034Z,19.55
2023-02-23T12:15:37.104Z,19.75
2023-02-23T12:18:16.209Z,18.27
2023-02-23T12:20:48.735Z,17.90
2023-02-23T12:23:21.192Z,17.65
2023-02-23T12:25:55.971Z,20.00
2023-02-23T12:28:32.114Z,16.08
2023-02-23T12:31:02.999Z,18.65
2023-02-23T12:33:39.596Z,19.80
2023-02-23T12:36:18.848Z,15.35
2023-02-23T12:38:52.808Z,15.32
2023-02-23T12:41:27.374Z,15.18
2023-02-23T12:44:00.527Z,14.13
2023-02-23T12:46:32.288Z,15.25
2023-02-23T12:49:07.757Z,13.50
2023-02-23T12:51:40.045Z,13.77
2023-02-23T12:54:12.453Z,12.32
2023-02-23T12:56:51.216Z,12.00
2023-02-23T12:59:32.994Z,12.13
2023-02-23T13:02:02.530Z,13.57
2023-02-23T13:04:53.469Z,12.38
2023-02-23T13:07:23.695Z,15.65
2023-02-23T13:10:04.385Z,11.80
2023-02-23T13:12:45.360Z,11.90
2023-02-23T13:15:24.629Z,10.60
2023-02-23T13:17:59.229Z,11.20
2023-02-23T13:20:34.519Z,12.80
2023-02-23T13:23:11.665Z,9.68
2023-02-23T13:25:49.832Z,9.85
2023-02-23T13:28:21.609Z,12.23
2023-02-23T13:30:49.590Z,10.52
2023-02-23T13:33:35.046Z,8.60
2023-02-23T13:36:12.934Z,10.25
2023-02-23T13:38:47.211Z,11.38
2023-02-23T13:41:28.841Z,9.35
2023-02-23T13:44:00.639Z,9.32
2023-02-23T13:46:41.389Z,10.85
2023-02-23T13:49:24.769Z,10.77
2023-02-23T13:51:58.068Z,11.07
2023-02-23T13:54:32.705Z,10.57
2023-02-23T13:57:02.939Z,13.43
2023-02-23T13:59:38.041Z,10.30
2023-02-23T14:02:24.927Z,9.95
2023-02-23T14:04:53.053Z,8.85
2023-02-23T14:07:28.377Z,13.02
2023-02-23T14:09:59.462Z,11.82
2023-02-23T14:12:35.101Z,9.68
2023-02-23T14:15:28.909Z,10.27
2023-02-23T14:17:58.900Z,10.45
2023-02-23T14:20:45.532Z,11.45
2023-02-23T14:23:52.791Z,10.13
2023-02-23T14:26:42.199Z,10.20
2023-02-23T14:29:27.263Z,8.80
2023-02-23T14:31:58.831Z,12.68
2023-02-23T14:34:52.175Z,11.27
2023-02-23T14:37:26.264Z,10.73
2023-02-23T14:39:58.189Z,11.35
2023-02-23T14:42:29.693Z,9.77
2023-02-23T14:45:04.562Z,10.13
2023-02-23T14:47:43.711Z,10.20
2023-02-23T14:50:17.335Z,9.70
2023-02-23T14:52:45.539Z,13.80
2023-02-23T14:55:24.741Z,10.65
2023-02-23T14:57:54.181Z,10.65
2023-02-23T15:00:24.819Z,8.63
2023-02-23T15:02:58.344Z,8.88
2023-02-23T15:05:28.773Z,10.98
2023-02-23T15:08:00.979Z,7.20
2023-02-23T15:10:34.018Z,9.10
2023-02-23T15:13:08.804Z,8.00
2023-02-23T15:15:39.221Z,7.68
2023-02-23T15:19:02.105Z,9.15
2023-02-23T15:21:53.654Z,6.60
2023-02-23T15:24:27.440Z,7.55
2023-02-23T15:26:57.478Z,6.50
2023-02-23T15:29:27.212Z,7.75
2023-02-23T15:31:57.950Z,8.77
2023-02-23T15:34:27.664Z,7.78
2023-02-23T15:36:58.621Z,8.90
2023-02-23T15:39:37.368Z,7.75
2023-02-23T15:42:11.707Z,6.68
2023-02-23T15:44:44.992Z,7.78
2023-02-23T15:47:22.477Z,6.05
2023-02-23T15:49:51.013Z,8.35
2023-02-23T15:52:23.349Z,7.93
2023-02-23T15:54:59.961Z,10.73
2023-02-23T15:57:32.893Z,9.27
2023-02-23T16:00:05.159Z,7.25
2023-02-23T16:02:37.719Z,7.30
2023-02-23T16:05:20.246Z,7.75
2023-02-23T16:07:48.457Z,8.02
2023-02-23T16:10:22.908Z,7.55
2023-02-23T16:12:54.081Z,8.80
2023-02-23T16:15:26.718Z,7.38
2023-02-23T16:18:00.197Z,10.20
2023-02-23T16:20:34.677Z,8.40
2023-02-23T16:23:03.414Z,8.18
2023-02-23T16:25:33.321Z,10.55
2023-02-23T16:28:04.767Z,8.63
2023-02-23T16:30:41.085Z,9.55
2023-02-23T16:33:18.901Z,10.00
2023-02-23T16:35:48.480Z,8.68
2023-02-23T16:38:25.576Z,9.88
2023-02-23T16:40:53.664Z,9.60
2023-02-23T16:43:23.031Z,9.18
2023-02-23T16:45:51.174Z,12.38
2023-02-23T16:48:19.932Z,10.32
2023-02-23T16:50:48.924Z,9.32
2023-02-23T16:53:16.939Z,12.68
2023-02-23T16:55:51.906Z,11.43
2023-02-23T16:58:24.928Z,11.48
2023-02-23T17:00:53.658Z,12.30
2023-02-23T17:03:24.658Z,12.43
2023-02-23T17:05:53.170Z,12.23
2023-02-23T17:08:21.195Z,12.80
2023-02-23T17:10:50.927Z,11.25
2023-02-23T17:13:20.416Z,11.65
2023-02-23T17:15:53.561Z,15.57
2023-02-23T17:20:57.897Z,18.80
2023-02-23T17:23:28.103Z,16.70
2023-02-23T17:25:57.420Z,19.48
2023-02-23T17:28:25.734Z,13.63
2023-02-23T17:30:55.103Z,18.08
2023-02-23T17:33:23.130Z,14.95
2023-02-23T17:35:50.995Z,20.67
2023-02-23T17:38:21.551Z,20.30
2023-02-23T17:40:49.994Z,16.17
2023-02-23T17:43:20.831Z,13.88
2023-02-23T17:45:49.721Z,14.23
2023-02-23T17:48:18.970Z,18.88
2023-02-23T17:50:46.819Z,16.55
2023-02-23T17:53:14.741Z,14.73
2023-02-23T17:55:42.616Z,16.20
2023-02-23T17:58:10.766Z,16.30
2023-02-23T18:00:38.675Z,14.27
2023-02-23T18:03:06.549Z,13.30
2023-02-23T18:05:35.859Z,16.30
2023-02-23T18:08:03.741Z,14.60
2023-02-23T18:10:31.569Z,14.65
2023-02-23T18:12:59.393Z,16.85
2023-02-23T18:15:27.226Z,14.90
2023-02-23T18:17:57.944Z,17.38
2023-02-23T18:20:26.152Z,17.05
2023-02-23T18:22:55.889Z,18.50
2023-02-23T18:25:27.250Z,19.73
2023-02-23T18:27:56.065Z,23.67
2023-02-23T18:30:26.945Z,25.20
2023-02-23T18:32:57.472Z,21.17
2023-02-23T18:35:25.410Z,18.67
2023-02-23T18:37:54.683Z,22.73
2023-02-23T18:40:23.785Z,22.08
2023-02-23T18:42:51.832Z,23.40
2023-02-23T18:45:20.082Z,20.10
2023-02-23T18:47:47.971Z,19.10
2023-02-23T18:50:18.931Z,20.70
2023-02-23T18:52:47.290Z,22.05
2023-02-23T18:55:16.596Z,20.42
2023-02-23T18:57:44.701Z,15.23
2023-02-23T19:00:14.310Z,16.27
2023-02-23T19:02:42.915Z,18.05
2023-02-23T19:05:12.778Z,23.75
2023-02-23T19:07:41.672Z,18.45
2023-02-23T19:10:12.090Z,21.13
2023-02-23T19:12:41.372Z,24.30
2023-02-23T19:15:10.520Z,23.50
2023-02-23T19:17:38.368Z,27.15
2023-02-23T19:20:12.724Z,25.48
2023-02-23T19:22:41.016Z,24.60
2023-02-23T19:25:11.488Z,23.73
2023-02-23T19:27:40.996Z,21.00
2023-02-23T19:30:10.791Z,19.88
2023-02-23T19:32:40.514Z,17.58
2023-02-23T19:35:11.000Z,16.65
2023-02-23T19:37:42.709Z,17.13
2023-02-23T19:40:19.294Z,15.80
2023-02-23T19:42:49.399Z,15.55
2023-02-23T19:45:18.229Z,18.15
2023-02-23T19:47:46.172Z,21.02
2023-02-23T19:50:16.140Z,22.20
2023-02-23T19:52:44.998Z,16.92
2023-02-23T19:55:13.389Z,15.95
2023-02-23T19:57:41.296Z,15.52
2023-02-23T20:00:12.603Z,18.17
2023-02-23T20:02:43.478Z,17.42
2023-02-23T20:05:12.340Z,16.17
2023-02-23T20:07:40.608Z,15.45
2023-02-23T20:10:10.303Z,17.20
2023-02-23T20:12:38.436Z,19.77
2023-02-23T20:15:07.679Z,27.88
2023-02-23T20:17:40.110Z,20.63
2023-02-23T20:20:11.169Z,14.68
2023-02-23T20:22:41.230Z,16.45
2023-02-23T20:25:12.482Z,14.15
2023-02-23T20:27:41.317Z,17.85
2023-02-23T20:30:10.510Z,17.40
2023-02-23T20:32:40.162Z,17.90
2023-02-23T20:35:11.228Z,17.27
2023-02-23T20:37:39.221Z,18.33
2023-02-23T20:40:16.515Z,18.27
2023-02-23T20:42:45.906Z,21.13
2023-02-23T20:45:14.575Z,20.83
2023-02-23T20:47:46.782Z,20.55
2023-02-23T20:50:15.681Z,19.13
2023-02-23T20:52:45.793Z,19.05
2023-02-23T20:55:19.200Z,19.20
2023-02-23T20:57:48.471Z,21.27
2023-02-23T21:00:22.578Z,20.48
2023-02-23T21:02:55.391Z,19.20
2023-02-23T21:05:25.256Z,22.45
2023-02-23T21:07:53.324Z,19.92
2023-02-23T21:10:21.293Z,21.80
2023-02-23T21:12:49.180Z,22.52
2023-02-23T21:15:17.113Z,21.90
2023-02-23T21:17:44.958Z,23.50
2023-02-23T21:20:15.595Z,22.15
2023-02-23T21:22:43.439Z,23.38
2023-02-23T21:25:12.919Z,26.52
2023-02-23T21:27:40.760Z,23.88
2023-02-23T21:30:11.038Z,27.80
2023-02-23T21:32:42.060Z,25.67
2023-02-23T21:35:11.872Z,24.33
2023-02-23T21:37:42.156Z,24.15
2023-02-23T21:40:13.096Z,25.80
2023-02-23T21:42:41.944Z,22.98
2023-02-23T21:45:10.680Z,26.67
2023-02-23T21:47:39.993Z,26.20
2023-02-23T21:50:10.346Z,26.80
2023-02-23T21:52:38.266Z,23.05
2023-02-23T21:55:19.601Z,26.10
2023-02-23T21:57:48.753Z,26.08
2023-02-23T22:00:18.819Z,20.77
2023-02-23T22:02:47.334Z,22.05
2023-02-23T22:05:15.998Z,22.70
2023-02-23T22:07:49.946Z,24.27
2023-02-23T22:10:21.011Z,22.08
2023-02-23T22:12:50.433Z,20.73
2023-02-23T22:15:18.338Z,23.55
2023-02-23T22:17:49.304Z,21.85
2023-02-23T22:20:20.104Z,22.75
2023-02-23T22:22:50.234Z,22.63
2023-02-23T22:25:20.760Z,19.55
2023-02-23T22:27:49.089Z,23.10
2023-02-23T22:30:20.070Z,18.90
2023-02-23T22:32:48.116Z,22.95
2023-02-23T22:35:16.261Z,24.23
2023-02-23T22:37:44.091Z,23.17
2023-02-23T22:40:16.617Z,20.30
2023-02-23T22:42:48.918Z,23.95
2023-02-23T22:45:17.709Z,23.15
2023-02-23T22:47:45.867Z,23.23
2023-02-23T22:50:17.886Z,24.05
2023-02-23T22:52:46.260Z,21.42
2023-02-23T22:55:14.097Z,25.85
2023-02-23T22:57:41.996Z,24.10
2023-02-23T23:00:15.390Z,22.80
